createdAt,value
2022-11-02T00:03:28.620Z,101035.31
2022-11-02T00:08:30.021Z,101037.47
2022-11-02T00:13:31.961Z,101045.91
2022-11-02T00:18:35.100Z,101042.44
2022-11-02T00:23:36.715Z,101058.38
2022-11-02T00:28:38.324Z,101043.69
2022-11-02T00:33:39.740Z,101045.28
2022-11-02T00:38:41.157Z,101039.06
2022-11-02T00:43:42.583Z,101033.56
2022-11-02T00:48:44.044Z,101050.66
2022-11-02T00:53:46.933Z,101051.16
2022-11-02T00:58:48.449Z,101053.53
2022-11-02T01:03:50.526Z,101064.50
2022-11-02T01:08:52.747Z,101058.63
2022-11-02T01:13:54.460Z,101065.56
2022-11-02T01:18:56.683Z,101066.94
2022-11-02T01:23:58.182Z,101066.22
2022-11-02T01:28:59.729Z,101055.00
2022-11-02T01:34:01.228Z,101053.16
2022-11-02T01:39:02.918Z,101053.38
2022-11-02T01:44:05.699Z,101061.50
2022-11-02T01:49:19.493Z,101053.63
2022-11-02T01:54:26.389Z,101051.66
2022-11-02T01:59:33.040Z,101060.00
2022-11-02T02:04:35.158Z,101063.34
2022-11-02T02:09:37.046Z,101058.25
2022-11-02T02:14:38.845Z,101052.91
2022-11-02T02:19:56.094Z,101061.22
2022-11-02T02:25:17.980Z,101061.72
2022-11-02T02:30:19.907Z,101056.38
2022-11-02T02:35:30.556Z,101056.84
2022-11-02T02:40:36.138Z,101058.84
2022-11-02T02:45:51.981Z,101060.59
2022-11-02T02:51:00.330Z,101062.69
2022-11-02T02:56:04.342Z,101065.47
2022-11-02T03:01:06.655Z,101076.84
2022-11-02T03:06:19.901Z,101074.75
2022-11-02T03:11:27.733Z,101074.63
2022-11-02T03:17:01.716Z,101089.09
2022-11-02T03:22:16.109Z,101096.50
2022-11-02T03:27:28.617Z,101093.88
2022-11-02T03:32:44.119Z,101104.69
2022-11-02T03:37:56.014Z,101107.59
2022-11-02T03:43:00.593Z,101105.19
2022-11-02T03:48:07.059Z,101119.19
2022-11-02T03:53:29.771Z,101118.41
2022-11-02T03:58:31.468Z,101139.91
2022-11-02T04:03:33.814Z,101136.22
2022-11-02T04:08:40.583Z,101153.66
2022-11-02T04:14:03.145Z,101147.19
2022-11-02T04:19:29.226Z,101149.41
2022-11-02T04:24:55.571Z,101170.19
2022-11-02T04:29:58.713Z,101174.78
2022-11-02T04:35:04.443Z,101179.97
2022-11-02T04:40:07.563Z,101191.44
2022-11-02T04:45:09.630Z,101198.94
2022-11-02T04:50:12.589Z,101207.66
2022-11-02T04:55:15.389Z,101208.88
2022-11-02T05:00:18.618Z,101208.09
2022-11-02T05:05:20.498Z,101208.28
2022-11-02T05:10:24.553Z,101209.63
2022-11-02T05:15:26.933Z,101208.78
2022-11-02T05:20:28.447Z,101228.06
2022-11-02T05:25:30.152Z,101229.75
2022-11-02T05:30:33.065Z,101238.63
2022-11-02T05:35:34.718Z,101244.06
2022-11-02T05:40:40.594Z,101247.75
2022-11-02T05:45:44.286Z,101248.13
2022-11-02T05:50:45.736Z,101257.00
2022-11-02T05:55:47.127Z,101251.91
2022-11-02T06:00:48.704Z,101261.06
2022-11-02T06:05:56.145Z,101266.41
2022-11-02T06:10:57.565Z,101271.59
2022-11-02T06:16:00.305Z,101280.50
2022-11-02T06:21:01.740Z,101294.88
2022-11-02T06:26:03.473Z,101306.28
2022-11-02T06:31:05.058Z,101318.19
2022-11-02T06:36:06.877Z,101328.00
2022-11-02T06:41:08.798Z,101332.97
2022-11-02T06:46:12.282Z,101339.19
2022-11-02T06:51:13.758Z,101354.53
2022-11-02T06:56:15.217Z,101366.06
2022-11-02T07:01:17.025Z,101385.34
2022-11-02T07:06:18.585Z,101394.53
2022-11-02T07:11:20.077Z,101422.84
2022-11-02T07:16:21.582Z,101428.25
2022-11-02T07:21:23.035Z,101439.66
2022-11-02T07:26:24.637Z,101453.31
2022-11-02T07:31:26.096Z,101456.50
2022-11-02T07:36:27.542Z,101470.03
2022-11-02T07:41:29.045Z,101462.91
2022-11-02T07:46:30.509Z,101484.97
2022-11-02T07:51:31.912Z,101492.31
2022-11-02T07:56:33.359Z,101507.22
2022-11-02T08:01:34.882Z,101518.56
2022-11-02T08:06:36.453Z,101532.88
2022-11-02T08:11:38.210Z,101525.72
2022-11-02T08:16:39.612Z,101524.47
2022-11-02T08:21:41.099Z,101526.63
2022-11-02T08:26:45.255Z,101542.91
2022-11-02T08:31:47.836Z,101542.91
2022-11-02T08:36:49.264Z,101548.81
2022-11-02T08:41:50.673Z,101562.84
2022-11-02T08:51:53.703Z,101561.97
2022-11-02T08:56:55.094Z,101560.28
2022-11-02T09:01:56.725Z,101569.16
2022-11-02T09:06:58.331Z,101569.56
2022-11-02T09:11:59.750Z,101558.34
2022-11-02T09:17:01.184Z,101585.56
2022-11-02T09:22:05.633Z,101588.28
2022-11-02T09:27:07.285Z,101582.88
2022-11-02T09:32:08.677Z,101592.56
2022-11-02T09:37:10.091Z,101582.25
2022-11-02T09:42:22.865Z,101591.75
2022-11-02T09:48:10.756Z,101593.69
2022-11-02T09:53:02.841Z,101597.13
2022-11-02T09:58:14.998Z,101610.69
2022-11-02T10:03:34.671Z,101597.75
2022-11-02T10:08:46.230Z,101590.44
2022-11-02T10:14:05.907Z,101592.13
2022-11-02T10:19:13.933Z,101612.81
2022-11-02T10:24:18.050Z,101616.53
2022-11-02T10:29:26.750Z,101616.13
2022-11-02T10:34:29.357Z,101620.41
2022-11-02T10:39:42.635Z,101610.28
2022-11-02T10:44:59.803Z,101609.44
2022-11-02T10:50:13.511Z,101619.22
2022-11-02T10:55:29.549Z,101615.69
2022-11-02T11:00:32.505Z,101621.00
2022-11-02T11:05:38.093Z,101618.38
2022-11-02T11:10:39.621Z,101628.53
2022-11-02T11:15:48.429Z,101630.84
2022-11-02T11:20:55.762Z,101631.28
2022-11-02T11:26:06.024Z,101623.72
2022-11-02T11:31:09.410Z,101634.53
2022-11-02T11:36:22.226Z,101629.09
2022-11-02T11:41:24.636Z,101624.22
2022-11-02T11:46:41.077Z,101621.44
2022-11-02T11:51:43.147Z,101621.97
2022-11-02T11:56:44.812Z,101617.94
2022-11-02T12:01:46.375Z,101622.34
2022-11-02T12:07:10.846Z,101623.72
2022-11-02T12:12:27.490Z,101613.78
2022-11-02T12:17:28.868Z,101605.22
2022-11-02T12:23:02.524Z,101606.19
2022-11-02T12:28:44.027Z,101601.59
2022-11-02T12:34:00.620Z,101596.84
2022-11-02T12:39:08.842Z,101598.03
2022-11-02T12:44:37.943Z,101581.13
2022-11-02T12:49:50.292Z,101590.66
2022-11-02T12:54:57.822Z,101569.00
2022-11-02T13:00:04.130Z,101568.41
2022-11-02T13:05:17.970Z,101573.00
2022-11-02T13:10:24.689Z,101572.63
2022-11-02T13:15:29.232Z,101562.63
2022-11-02T13:20:39.326Z,101571.91
2022-11-02T13:25:44.175Z,101555.91
2022-11-02T13:30:47.740Z,101561.53
2022-11-02T13:35:51.502Z,101563.47
2022-11-02T13:41:23.057Z,101558.47
2022-11-02T13:46:58.623Z,101545.06
2022-11-02T13:52:07.435Z,101541.19
2022-11-02T13:57:34.646Z,101537.63
2022-11-02T14:02:42.648Z,101543.69
2022-11-02T14:07:44.727Z,101537.72
2022-11-02T14:12:50.240Z,101534.31
2022-11-02T14:18:03.885Z,101536.31
2022-11-02T14:23:11.673Z,101534.69
2022-11-02T14:28:22.239Z,101538.41
2022-11-02T14:33:41.414Z,101533.31
2022-11-02T14:39:20.111Z,101529.41
2022-11-02T14:44:29.529Z,101518.06
2022-11-02T14:49:32.773Z,101514.66
2022-11-02T14:54:46.171Z,101514.84
2022-11-02T14:59:52.089Z,101508.88
2022-11-02T15:05:00.690Z,101503.88
2022-11-02T15:10:17.411Z,101507.19
2022-11-02T15:15:27.779Z,101491.63
2022-11-02T15:20:33.387Z,101487.16
2022-11-02T15:25:39.078Z,101486.75
2022-11-02T15:30:46.783Z,101490.41
2022-11-02T15:35:53.163Z,101493.72
2022-11-02T15:41:05.917Z,101496.72
2022-11-02T15:46:24.090Z,101489.47
2022-11-02T15:51:37.779Z,101490.91
2022-11-02T15:56:47.933Z,101483.25
2022-11-02T16:02:31.478Z,101484.41
2022-11-02T16:07:50.257Z,101482.66
2022-11-02T16:13:21.977Z,101469.81
2022-11-02T16:18:25.715Z,101461.06
2022-11-02T16:23:30.086Z,101458.91
2022-11-02T16:28:36.095Z,101457.69
2022-11-02T16:33:51.369Z,101452.41
2022-11-02T16:38:55.720Z,101452.94
2022-11-02T16:44:01.257Z,101470.22
2022-11-02T16:49:18.743Z,101454.31
2022-11-02T16:54:49.565Z,101448.44
2022-11-02T16:59:55.862Z,101455.25
2022-11-02T17:05:02.367Z,101451.59
2022-11-02T17:10:09.127Z,101463.34
2022-11-02T17:15:34.079Z,101459.56
2022-11-02T17:20:37.099Z,101456.22
2022-11-02T17:25:40.283Z,101463.56
2022-11-02T17:30:43.390Z,101465.44
2022-11-02T17:35:49.723Z,101469.13
2022-11-02T17:40:52.344Z,101470.88
2022-11-02T17:45:58.466Z,101464.56
2022-11-02T17:51:00.137Z,101466.34
2022-11-02T17:56:01.737Z,101458.66
2022-11-02T18:01:04.728Z,101449.91
2022-11-02T18:06:06.570Z,101448.63
2022-11-02T18:11:09.191Z,101450.41
2022-11-02T18:16:10.870Z,101439.53
2022-11-02T18:21:12.721Z,101433.19
2022-11-02T18:26:14.188Z,101431.78
2022-11-02T18:31:15.640Z,101430.03
2022-11-02T18:36:17.049Z,101427.22
2022-11-02T18:41:27.545Z,101430.03
2022-11-02T18:46:30.782Z,101434.91
2022-11-02T18:51:32.851Z,101436.38
2022-11-02T18:56:34.277Z,101430.72
2022-11-02T19:01:35.965Z,101428.94
2022-11-02T19:06:56.033Z,101424.25
2022-11-02T19:12:00.450Z,101426.56
2022-11-02T19:17:02.862Z,101418.41
2022-11-02T19:22:04.358Z,101407.91
2022-11-02T19:27:06.649Z,101405.06
2022-11-02T19:32:08.419Z,101402.03
2022-11-02T19:37:10.412Z,101393.06
2022-11-02T19:42:11.807Z,101380.81
2022-11-02T19:47:13.252Z,101365.09
2022-11-02T19:52:14.665Z,101361.88
2022-11-02T19:57:16.085Z,101357.50
2022-11-02T20:02:17.525Z,101352.03
2022-11-02T20:07:19.136Z,101342.16
2022-11-02T20:12:20.624Z,101337.19
2022-11-02T20:17:51.903Z,101338.00
2022-11-02T20:22:43.815Z,101324.53
2022-11-02T20:27:45.445Z,101317.53
2022-11-02T20:32:46.838Z,101309.44
2022-11-02T20:37:48.494Z,101300.91
2022-11-02T20:42:50.313Z,101295.78
2022-11-02T20:47:51.891Z,101284.63
2022-11-02T20:52:55.217Z,101282.22
2022-11-02T20:57:57.534Z,101288.56
2022-11-02T21:02:58.980Z,101283.13
2022-11-02T21:08:00.951Z,101277.63
2022-11-02T21:13:20.738Z,101278.59
2022-11-02T21:18:22.315Z,101271.06
2022-11-02T21:23:23.697Z,101267.69
2022-11-02T21:28:28.397Z,101260.88
2022-11-02T21:33:31.338Z,101252.78
2022-11-02T21:38:33.073Z,101252.25
2022-11-02T21:43:38.500Z,101243.97
2022-11-02T21:48:39.966Z,101237.56
2022-11-02T21:53:43.498Z,101233.47
2022-11-02T21:58:46.504Z,101236.47
2022-11-02T22:03:48.542Z,101226.47
2022-11-02T22:08:50.593Z,101224.78
2022-11-02T22:13:52.762Z,101211.63
2022-11-02T22:18:56.577Z,101210.47
2022-11-02T22:23:58.757Z,101195.03
2022-11-02T22:29:03.235Z,101193.38
2022-11-02T22:34:07.789Z,101196.19
2022-11-02T22:39:12.538Z,101187.75
2022-11-02T22:44:23.067Z,101181.50
2022-11-02T22:49:24.489Z,101172.34
2022-11-02T22:54:25.917Z,101160.97
2022-11-02T22:59:27.310Z,101161.41
2022-11-02T23:04:28.708Z,101141.09
2022-11-02T23:09:30.085Z,101144.59
2022-11-02T23:14:31.514Z,101138.50
2022-11-02T23:19:33.880Z,101146.69
2022-11-02T23:24:53.778Z,101139.25
2022-11-02T23:30:33.545Z,101129.34
2022-11-02T23:35:55.198Z,101140.41
2022-11-02T23:40:56.573Z,101120.47
2022-11-02T23:45:57.961Z,101118.41
2022-11-02T23:51:18.403Z,101110.50
2022-11-02T23:56:38.086Z,101104.97
